sensor_id;sensor_type;location;lat;lon;timestamp;temperature;humidity
31731;DHT22;18310;55.586;12.286;2022-12-24T00:01:49;4.10;71.10
31731;DHT22;18310;55.586;12.286;2022-12-24T00:04:52;4.20;71.20
31731;DHT22;18310;55.586;12.286;2022-12-24T00:08:01;4.20;71.20
31731;DHT22;18310;55.586;12.286;2022-12-24T00:11:05;3.40;70.70
31731;DHT22;18310;55.586;12.286;2022-12-24T00:14:09;4.40;71.20
31731;DHT22;18310;55.586;12.286;2022-12-24T00:17:13;4.30;70.80
31731;DHT22;18310;55.586;12.286;2022-12-24T00:20:16;4.30;70.60
31731;DHT22;18310;55.586;12.286;2022-12-24T00:23:19;4.30;70.50
31731;DHT22;18310;55.586;12.286;2022-12-24T00:26:23;4.30;70.50
31731;DHT22;18310;55.586;12.286;2022-12-24T00:29:27;5.10;70.80
31731;DHT22;18310;55.586;12.286;2022-12-24T00:32:30;4.30;70.20
31731;DHT22;18310;55.586;12.286;2022-12-24T00:35:34;4.30;70.10
31731;DHT22;18310;55.586;12.286;2022-12-24T00:38:38;3.90;69.80
31731;DHT22;18310;55.586;12.286;2022-12-24T00:41:41;3.60;69.60
31731;DHT22;18310;55.586;12.286;2022-12-24T00:44:46;4.20;70.00
31731;DHT22;18310;55.586;12.286;2022-12-24T00:47:49;4.20;70.00
31731;DHT22;18310;55.586;12.286;2022-12-24T00:50:52;4.20;70.00
31731;DHT22;18310;55.586;12.286;2022-12-24T00:53:56;4.20;69.80
31731;DHT22;18310;55.586;12.286;2022-12-24T00:57:00;4.30;69.90
31731;DHT22;18310;55.586;12.286;2022-12-24T01:00:07;4.30;69.90
31731;DHT22;18310;55.586;12.286;2022-12-24T01:03:11;4.30;69.90
31731;DHT22;18310;55.586;12.286;2022-12-24T01:06:16;3.70;69.50
31731;DHT22;18310;55.586;12.286;2022-12-24T01:09:20;4.30;69.60
31731;DHT22;18310;55.586;12.286;2022-12-24T01:12:23;4.30;69.40
31731;DHT22;18310;55.586;12.286;2022-12-24T01:15:28;4.30;69.40
31731;DHT22;18310;55.586;12.286;2022-12-24T01:18:32;4.30;69.30
31731;DHT22;18310;55.586;12.286;2022-12-24T01:21:35;3.60;69.00
31731;DHT22;18310;55.586;12.286;2022-12-24T01:24:39;4.20;69.40
31731;DHT22;18310;55.586;12.286;2022-12-24T01:27:43;4.30;69.60
31731;DHT22;18310;55.586;12.286;2022-12-24T01:30:47;4.30;69.70
31731;DHT22;18310;55.586;12.286;2022-12-24T01:33:51;4.30;69.40
31731;DHT22;18310;55.586;12.286;2022-12-24T01:36:54;4.30;70.20
31731;DHT22;18310;55.586;12.286;2022-12-24T01:39:57;4.30;69.40
31731;DHT22;18310;55.586;12.286;2022-12-24T01:43:17;4.80;69.60
31731;DHT22;18310;55.586;12.286;2022-12-24T01:46:31;4.30;69.40
31731;DHT22;18310;55.586;12.286;2022-12-24T01:49:37;4.30;69.10
31731;DHT22;18310;55.586;12.286;2022-12-24T01:52:43;3.80;68.90
31731;DHT22;18310;55.586;12.286;2022-12-24T01:55:47;4.50;69.40
31731;DHT22;18310;55.586;12.286;2022-12-24T01:58:54;5.30;69.70
31731;DHT22;18310;55.586;12.286;2022-12-24T02:02:03;4.40;69.10
31731;DHT22;18310;55.586;12.286;2022-12-24T02:05:13;4.90;69.50
31731;DHT22;18310;55.586;12.286;2022-12-24T02:08:19;4.20;68.90
31731;DHT22;18310;55.586;12.286;2022-12-24T02:11:22;3.30;68.50
31731;DHT22;18310;55.586;12.286;2022-12-24T02:14:26;4.20;69.00
31731;DHT22;18310;55.586;12.286;2022-12-24T02:17:38;3.90;68.70
31731;DHT22;18310;55.586;12.286;2022-12-24T02:25:24;4.10;68.40
31731;DHT22;18310;55.586;12.286;2022-12-24T02:28:53;4.10;68.40
31731;DHT22;18310;55.586;12.286;2022-12-24T02:32:17;4.00;68.70
31731;DHT22;18310;55.586;12.286;2022-12-24T02:35:33;4.00;68.90
31731;DHT22;18310;55.586;12.286;2022-12-24T02:38:43;4.70;69.30
31731;DHT22;18310;55.586;12.286;2022-12-24T02:41:52;4.70;69.20
31731;DHT22;18310;55.586;12.286;2022-12-24T02:45:11;3.90;68.60
31731;DHT22;18310;55.586;12.286;2022-12-24T02:48:19;4.10;68.70
31731;DHT22;18310;55.586;12.286;2022-12-24T02:51:25;3.80;68.50
31731;DHT22;18310;55.586;12.286;2022-12-24T02:54:29;3.80;68.60
31731;DHT22;18310;55.586;12.286;2022-12-24T02:57:43;3.70;68.50
31731;DHT22;18310;55.586;12.286;2022-12-24T03:01:01;3.60;68.50
31731;DHT22;18310;55.586;12.286;2022-12-24T03:04:23;3.60;68.80
31731;DHT22;18310;55.586;12.286;2022-12-24T03:07:43;3.60;68.70
31731;DHT22;18310;55.586;12.286;2022-12-24T03:11:01;3.50;68.70
31731;DHT22;18310;55.586;12.286;2022-12-24T03:14:07;3.40;68.70
31731;DHT22;18310;55.586;12.286;2022-12-24T03:17:10;3.40;68.70
31731;DHT22;18310;55.586;12.286;2022-12-24T03:20:17;3.30;68.70
31731;DHT22;18310;55.586;12.286;2022-12-24T03:23:23;3.30;68.70
31731;DHT22;18310;55.586;12.286;2022-12-24T03:26:28;3.20;68.70
31731;DHT22;18310;55.586;12.286;2022-12-24T03:29:33;3.60;69.00
31731;DHT22;18310;55.586;12.286;2022-12-24T03:32:37;3.00;69.00
31731;DHT22;18310;55.586;12.286;2022-12-24T03:35:42;3.00;69.30
31731;DHT22;18310;55.586;12.286;2022-12-24T03:38:45;3.00;69.70
31731;DHT22;18310;55.586;12.286;2022-12-24T03:41:48;3.10;70.10
31731;DHT22;18310;55.586;12.286;2022-12-24T03:44:51;3.00;70.20
31731;DHT22;18310;55.586;12.286;2022-12-24T03:47:54;2.80;70.10
31731;DHT22;18310;55.586;12.286;2022-12-24T03:50:59;3.20;70.50
31731;DHT22;18310;55.586;12.286;2022-12-24T03:54:02;3.20;70.50
31731;DHT22;18310;55.586;12.286;2022-12-24T03:57:05;3.20;70.40
31731;DHT22;18310;55.586;12.286;2022-12-24T04:00:09;3.30;70.40
31731;DHT22;18310;55.586;12.286;2022-12-24T04:03:13;3.40;70.50
31731;DHT22;18310;55.586;12.286;2022-12-24T04:06:18;3.70;70.70
31731;DHT22;18310;55.586;12.286;2022-12-24T04:09:21;3.60;70.60
31731;DHT22;18310;55.586;12.286;2022-12-24T04:12:24;3.60;70.50
31731;DHT22;18310;55.586;12.286;2022-12-24T04:15:27;3.70;70.50
31731;DHT22;18310;55.586;12.286;2022-12-24T04:18:30;3.70;70.30
31731;DHT22;18310;55.586;12.286;2022-12-24T04:21:35;3.90;70.30
31731;DHT22;18310;55.586;12.286;2022-12-24T04:24:38;3.80;70.10
31731;DHT22;18310;55.586;12.286;2022-12-24T04:27:41;5.10;70.90
31731;DHT22;18310;55.586;12.286;2022-12-24T04:30:44;3.90;70.10
31731;DHT22;18310;55.586;12.286;2022-12-24T04:33:50;4.00;70.00
31731;DHT22;18310;55.586;12.286;2022-12-24T04:36:55;4.00;70.10
31731;DHT22;18310;55.586;12.286;2022-12-24T04:39:58;4.00;70.00
31731;DHT22;18310;55.586;12.286;2022-12-24T04:43:02;4.10;70.30
31731;DHT22;18310;55.586;12.286;2022-12-24T04:46:06;4.20;70.40
31731;DHT22;18310;55.586;12.286;2022-12-24T04:49:10;3.20;69.60
31731;DHT22;18310;55.586;12.286;2022-12-24T04:52:15;4.20;70.00
31731;DHT22;18310;55.586;12.286;2022-12-24T04:55:18;4.20;69.70
31731;DHT22;18310;55.586;12.286;2022-12-24T04:58:23;4.20;69.60
31731;DHT22;18310;55.586;12.286;2022-12-24T05:01:28;4.20;69.40
31731;DHT22;18310;55.586;12.286;2022-12-24T05:04:33;4.20;69.40
31731;DHT22;18310;55.586;12.286;2022-12-24T05:07:37;4.10;69.50
31731;DHT22;18310;55.586;12.286;2022-12-24T05:10:40;4.10;69.70
31731;DHT22;18310;55.586;12.286;2022-12-24T05:13:44;5.50;70.50
31731;DHT22;18310;55.586;12.286;2022-12-24T05:16:49;4.10;69.60
31731;DHT22;18310;55.586;12.286;2022-12-24T05:19:52;4.00;69.60
31731;DHT22;18310;55.586;12.286;2022-12-24T05:22:56;3.80;69.60
31731;DHT22;18310;55.586;12.286;2022-12-24T05:26:20;4.10;69.90
31731;DHT22;18310;55.586;12.286;2022-12-24T05:29:29;4.10;69.80
31731;DHT22;18310;55.586;12.286;2022-12-24T05:32:33;4.10;69.80
31731;DHT22;18310;55.586;12.286;2022-12-24T05:35:36;4.10;69.80
31731;DHT22;18310;55.586;12.286;2022-12-24T05:38:41;4.10;69.80
31731;DHT22;18310;55.586;12.286;2022-12-24T05:41:45;4.20;69.90
31731;DHT22;18310;55.586;12.286;2022-12-24T05:44:48;4.20;69.80
31731;DHT22;18310;55.586;12.286;2022-12-24T05:47:52;4.20;69.70
31731;DHT22;18310;55.586;12.286;2022-12-24T05:50:55;4.20;69.60
31731;DHT22;18310;55.586;12.286;2022-12-24T05:54:00;4.20;69.70
31731;DHT22;18310;55.586;12.286;2022-12-24T05:57:03;4.30;69.80
31731;DHT22;18310;55.586;12.286;2022-12-24T06:00:08;4.20;69.60
31731;DHT22;18310;55.586;12.286;2022-12-24T06:03:12;4.20;69.50
31731;DHT22;18310;55.586;12.286;2022-12-24T06:06:18;4.20;69.40
31731;DHT22;18310;55.586;12.286;2022-12-24T06:09:24;4.20;69.40
31731;DHT22;18310;55.586;12.286;2022-12-24T06:12:28;4.20;69.40
31731;DHT22;18310;55.586;12.286;2022-12-24T06:15:31;5.30;69.90
31731;DHT22;18310;55.586;12.286;2022-12-24T06:18:35;4.10;69.30
31731;DHT22;18310;55.586;12.286;2022-12-24T06:21:39;4.00;69.40
31731;DHT22;18310;55.586;12.286;2022-12-24T06:24:43;4.00;69.60
31731;DHT22;18310;55.586;12.286;2022-12-24T06:27:47;4.00;69.90
31731;DHT22;18310;55.586;12.286;2022-12-24T06:30:50;4.00;69.90
31731;DHT22;18310;55.586;12.286;2022-12-24T06:34:02;4.00;70.00
31731;DHT22;18310;55.586;12.286;2022-12-24T06:37:06;4.00;70.10
31731;DHT22;18310;55.586;12.286;2022-12-24T06:40:12;4.10;70.20
31731;DHT22;18310;55.586;12.286;2022-12-24T06:43:16;4.10;70.20
31731;DHT22;18310;55.586;12.286;2022-12-24T06:46:19;4.20;70.60
31731;DHT22;18310;55.586;12.286;2022-12-24T06:49:23;4.20;69.90
31731;DHT22;18310;55.586;12.286;2022-12-24T06:52:26;4.20;69.70
31731;DHT22;18310;55.586;12.286;2022-12-24T06:55:31;4.20;69.60
31731;DHT22;18310;55.586;12.286;2022-12-24T06:58:35;4.60;69.80
31731;DHT22;18310;55.586;12.286;2022-12-24T07:01:38;4.20;69.60
31731;DHT22;18310;55.586;12.286;2022-12-24T07:04:41;4.20;69.50
31731;DHT22;18310;55.586;12.286;2022-12-24T07:07:45;4.10;69.40
31731;DHT22;18310;55.586;12.286;2022-12-24T07:10:51;4.10;69.40
31731;DHT22;18310;55.586;12.286;2022-12-24T07:13:55;3.00;68.80
31731;DHT22;18310;55.586;12.286;2022-12-24T07:16:58;3.60;69.30
31731;DHT22;18310;55.586;12.286;2022-12-24T07:20:02;4.60;69.90
31731;DHT22;18310;55.586;12.286;2022-12-24T07:23:06;4.00;69.60
31731;DHT22;18310;55.586;12.286;2022-12-24T07:26:11;3.90;69.60
31731;DHT22;18310;55.586;12.286;2022-12-24T07:29:14;3.90;69.70
31731;DHT22;18310;55.586;12.286;2022-12-24T07:32:17;3.90;69.90
31731;DHT22;18310;55.586;12.286;2022-12-24T07:35:21;3.90;70.00
31731;DHT22;18310;55.586;12.286;2022-12-24T07:38:24;3.90;70.10
31731;DHT22;18310;55.586;12.286;2022-12-24T07:41:28;3.90;70.30
31731;DHT22;18310;55.586;12.286;2022-12-24T07:44:36;3.90;70.30
31731;DHT22;18310;55.586;12.286;2022-12-24T07:47:39;3.90;70.30
31731;DHT22;18310;55.586;12.286;2022-12-24T07:50:43;4.00;70.40
31731;DHT22;18310;55.586;12.286;2022-12-24T07:53:46;4.00;70.30
31731;DHT22;18310;55.586;12.286;2022-12-24T07:56:51;4.00;70.20
31731;DHT22;18310;55.586;12.286;2022-12-24T07:59:54;4.00;70.20
31731;DHT22;18310;55.586;12.286;2022-12-24T08:02:57;4.00;70.30
31731;DHT22;18310;55.586;12.286;2022-12-24T08:06:01;4.00;70.30
31731;DHT22;18310;55.586;12.286;2022-12-24T08:09:05;4.00;70.50
31731;DHT22;18310;55.586;12.286;2022-12-24T08:12:10;4.90;71.10
31731;DHT22;18310;55.586;12.286;2022-12-24T08:15:13;4.00;70.60
31731;DHT22;18310;55.586;12.286;2022-12-24T08:18:16;4.10;70.80
31731;DHT22;18310;55.586;12.286;2022-12-24T08:21:19;4.10;70.90
31731;DHT22;18310;55.586;12.286;2022-12-24T08:24:22;4.20;70.80
31731;DHT22;18310;55.586;12.286;2022-12-24T08:27:27;4.20;70.70
31731;DHT22;18310;55.586;12.286;2022-12-24T08:30:31;4.30;70.70
31731;DHT22;18310;55.586;12.286;2022-12-24T08:33:34;4.00;70.60
31731;DHT22;18310;55.586;12.286;2022-12-24T08:36:37;4.30;70.70
31731;DHT22;18310;55.586;12.286;2022-12-24T08:39:40;4.30;70.60
31731;DHT22;18310;55.586;12.286;2022-12-24T08:42:45;4.30;70.90
31731;DHT22;18310;55.586;12.286;2022-12-24T08:45:48;4.40;70.90
31731;DHT22;18310;55.586;12.286;2022-12-24T08:48:52;3.70;70.60
31731;DHT22;18310;55.586;12.286;2022-12-24T08:51:55;4.50;70.90
31731;DHT22;18310;55.586;12.286;2022-12-24T08:54:58;4.50;71.00
31731;DHT22;18310;55.586;12.286;2022-12-24T08:58:03;4.60;71.40
31731;DHT22;18310;55.586;12.286;2022-12-24T09:01:11;4.60;71.20
31731;DHT22;18310;55.586;12.286;2022-12-24T09:04:15;4.70;71.10
31731;DHT22;18310;55.586;12.286;2022-12-24T09:07:19;4.80;71.00
31731;DHT22;18310;55.586;12.286;2022-12-24T09:10:22;4.80;70.90
31731;DHT22;18310;55.586;12.286;2022-12-24T09:13:27;4.90;70.80
31731;DHT22;18310;55.586;12.286;2022-12-24T09:16:30;5.60;71.10
31731;DHT22;18310;55.586;12.286;2022-12-24T09:19:34;4.90;70.70
31731;DHT22;18310;55.586;12.286;2022-12-24T09:22:38;5.20;70.80
31731;DHT22;18310;55.586;12.286;2022-12-24T09:25:41;5.00;70.50
31731;DHT22;18310;55.586;12.286;2022-12-24T09:28:47;5.00;70.50
31731;DHT22;18310;55.586;12.286;2022-12-24T09:31:50;5.00;70.40
31731;DHT22;18310;55.586;12.286;2022-12-24T09:34:56;5.00;70.30
31731;DHT22;18310;55.586;12.286;2022-12-24T09:37:59;5.00;70.20
31731;DHT22;18310;55.586;12.286;2022-12-24T09:41:11;5.00;70.50
31731;DHT22;18310;55.586;12.286;2022-12-24T09:44:31;5.80;70.50
31731;DHT22;18310;55.586;12.286;2022-12-24T09:47:43;5.00;69.90
31731;DHT22;18310;55.586;12.286;2022-12-24T09:50:55;5.00;70.00
31731;DHT22;18310;55.586;12.286;2022-12-24T09:54:04;5.00;70.00
31731;DHT22;18310;55.586;12.286;2022-12-24T09:57:16;5.00;70.10
31731;DHT22;18310;55.586;12.286;2022-12-24T10:00:31;5.00;70.20
31731;DHT22;18310;55.586;12.286;2022-12-24T10:03:38;5.00;70.40
31731;DHT22;18310;55.586;12.286;2022-12-24T10:06:48;5.00;70.50
31731;DHT22;18310;55.586;12.286;2022-12-24T10:10:02;4.90;70.40
31731;DHT22;18310;55.586;12.286;2022-12-24T10:13:19;5.00;70.60
31731;DHT22;18310;55.586;12.286;2022-12-24T10:16:39;5.00;70.60
31731;DHT22;18310;55.586;12.286;2022-12-24T10:19:52;5.10;70.60
31731;DHT22;18310;55.586;12.286;2022-12-24T10:23:06;5.20;70.70
31731;DHT22;18310;55.586;12.286;2022-12-24T10:26:21;5.20;70.70
31731;DHT22;18310;55.586;12.286;2022-12-24T10:29:31;5.30;70.70
31731;DHT22;18310;55.586;12.286;2022-12-24T10:32:40;6.50;71.30
31731;DHT22;18310;55.586;12.286;2022-12-24T10:35:47;5.30;70.70
31731;DHT22;18310;55.586;12.286;2022-12-24T10:38:56;5.10;70.60
31731;DHT22;18310;55.586;12.286;2022-12-24T10:42:00;5.40;70.70
31731;DHT22;18310;55.586;12.286;2022-12-24T10:45:06;5.50;70.60
31731;DHT22;18310;55.586;12.286;2022-12-24T10:48:17;5.50;70.60
31731;DHT22;18310;55.586;12.286;2022-12-24T10:51:33;6.10;71.40
31731;DHT22;18310;55.586;12.286;2022-12-24T10:55:08;5.50;70.50
31731;DHT22;18310;55.586;12.286;2022-12-24T10:58:15;5.70;70.20
31731;DHT22;18310;55.586;12.286;2022-12-24T11:01:20;5.80;70.40
31731;DHT22;18310;55.586;12.286;2022-12-24T11:04:46;6.80;71.10
31731;DHT22;18310;55.586;12.286;2022-12-24T11:07:58;5.90;70.20
31731;DHT22;18310;55.586;12.286;2022-12-24T11:11:04;6.00;70.20
31731;DHT22;18310;55.586;12.286;2022-12-24T11:14:13;6.10;70.20
31731;DHT22;18310;55.586;12.286;2022-12-24T11:17:21;6.40;70.20
31731;DHT22;18310;55.586;12.286;2022-12-24T11:20:28;6.10;70.10
31731;DHT22;18310;55.586;12.286;2022-12-24T11:23:34;5.60;69.70
31731;DHT22;18310;55.586;12.286;2022-12-24T11:26:39;6.20;70.00
31731;DHT22;18310;55.586;12.286;2022-12-24T11:29:44;6.20;69.70
31731;DHT22;18310;55.586;12.286;2022-12-24T11:32:48;6.30;69.70
31731;DHT22;18310;55.586;12.286;2022-12-24T11:35:58;7.20;70.10
31731;DHT22;18310;55.586;12.286;2022-12-24T11:39:04;7.50;70.10
31731;DHT22;18310;55.586;12.286;2022-12-24T11:42:22;6.30;69.40
31731;DHT22;18310;55.586;12.286;2022-12-24T11:45:31;6.40;69.00
31731;DHT22;18310;55.586;12.286;2022-12-24T11:48:36;6.80;69.50
31731;DHT22;18310;55.586;12.286;2022-12-24T11:52:10;6.40;69.20
31731;DHT22;18310;55.586;12.286;2022-12-24T11:55:32;6.40;68.60
31731;DHT22;18310;55.586;12.286;2022-12-24T11:58:46;6.40;68.90
31731;DHT22;18310;55.586;12.286;2022-12-24T12:01:59;6.30;68.90
31731;DHT22;18310;55.586;12.286;2022-12-24T12:05:16;6.30;69.00
31731;DHT22;18310;55.586;12.286;2022-12-24T12:08:24;7.00;69.40
31731;DHT22;18310;55.586;12.286;2022-12-24T12:11:31;6.30;69.20
31731;DHT22;18310;55.586;12.286;2022-12-24T12:14:38;6.40;69.30
31731;DHT22;18310;55.586;12.286;2022-12-24T12:17:49;6.40;69.40
31731;DHT22;18310;55.586;12.286;2022-12-24T12:20:59;6.40;69.30
31731;DHT22;18310;55.586;12.286;2022-12-24T12:24:13;6.50;69.30
31731;DHT22;18310;55.586;12.286;2022-12-24T12:27:27;6.50;69.00
31731;DHT22;18310;55.586;12.286;2022-12-24T12:30:36;6.50;69.10
31731;DHT22;18310;55.586;12.286;2022-12-24T12:33:47;6.50;69.20
31731;DHT22;18310;55.586;12.286;2022-12-24T12:36:56;6.60;69.10
31731;DHT22;18310;55.586;12.286;2022-12-24T12:40:17;6.60;69.10
31731;DHT22;18310;55.586;12.286;2022-12-24T12:47:28;6.70;69.00
31731;DHT22;18310;55.586;12.286;2022-12-24T12:50:59;6.60;68.60
31731;DHT22;18310;55.586;12.286;2022-12-24T12:54:21;6.60;69.00
31731;DHT22;18310;55.586;12.286;2022-12-24T12:57:36;5.70;68.30
31731;DHT22;18310;55.586;12.286;2022-12-24T13:00:43;6.60;69.10
31731;DHT22;18310;55.586;12.286;2022-12-24T13:04:20;6.70;69.30
31731;DHT22;18310;55.586;12.286;2022-12-24T13:08:10;6.70;69.10
31731;DHT22;18310;55.586;12.286;2022-12-24T13:11:51;6.70;69.00
31731;DHT22;18310;55.586;12.286;2022-12-24T13:15:23;6.80;69.10
31731;DHT22;18310;55.586;12.286;2022-12-24T13:19:06;6.80;69.10
31731;DHT22;18310;55.586;12.286;2022-12-24T13:22:21;6.90;69.10
31731;DHT22;18310;55.586;12.286;2022-12-24T13:25:29;6.90;69.40
31731;DHT22;18310;55.586;12.286;2022-12-24T13:28:36;6.90;69.20
31731;DHT22;18310;55.586;12.286;2022-12-24T13:31:41;6.90;69.10
31731;DHT22;18310;55.586;12.286;2022-12-24T13:34:47;6.90;69.10
31731;DHT22;18310;55.586;12.286;2022-12-24T13:37:52;6.90;68.90
31731;DHT22;18310;55.586;12.286;2022-12-24T13:49:10;6.80;68.80
31731;DHT22;18310;55.586;12.286;2022-12-24T13:52:18;6.80;68.90
31731;DHT22;18310;55.586;12.286;2022-12-24T13:55:24;6.70;69.00
31731;DHT22;18310;55.586;12.286;2022-12-24T13:58:30;6.70;69.10
31731;DHT22;18310;55.586;12.286;2022-12-24T14:01:36;7.40;69.70
31731;DHT22;18310;55.586;12.286;2022-12-24T14:04:48;6.70;69.50
31731;DHT22;18310;55.586;12.286;2022-12-24T14:07:53;6.60;69.70
31731;DHT22;18310;55.586;12.286;2022-12-24T14:11:04;6.60;69.70
31731;DHT22;18310;55.586;12.286;2022-12-24T14:14:25;6.60;69.90
31731;DHT22;18310;55.586;12.286;2022-12-24T14:17:30;6.60;70.10
31731;DHT22;18310;55.586;12.286;2022-12-24T14:20:36;6.50;70.00
31731;DHT22;18310;55.586;12.286;2022-12-24T14:23:44;6.50;70.10
31731;DHT22;18310;55.586;12.286;2022-12-24T14:26:57;6.50;70.30
31731;DHT22;18310;55.586;12.286;2022-12-24T14:30:18;6.30;70.30
31731;DHT22;18310;55.586;12.286;2022-12-24T14:33:29;6.50;70.50
31731;DHT22;18310;55.586;12.286;2022-12-24T14:36:32;6.50;70.70
31731;DHT22;18310;55.586;12.286;2022-12-24T14:39:41;6.50;70.60
31731;DHT22;18310;55.586;12.286;2022-12-24T14:42:53;6.60;70.80
31731;DHT22;18310;55.586;12.286;2022-12-24T14:46:03;6.50;70.70
31731;DHT22;18310;55.586;12.286;2022-12-24T14:49:28;6.50;70.70
31731;DHT22;18310;55.586;12.286;2022-12-24T14:52:47;6.90;70.60
31731;DHT22;18310;55.586;12.286;2022-12-24T14:56:12;6.50;70.20
31731;DHT22;18310;55.586;12.286;2022-12-24T14:59:18;6.50;70.10
31731;DHT22;18310;55.586;12.286;2022-12-24T15:05:50;6.30;69.90
31731;DHT22;18310;55.586;12.286;2022-12-24T15:08:56;6.50;70.20
31731;DHT22;18310;55.586;12.286;2022-12-24T15:12:01;6.70;70.40
31731;DHT22;18310;55.586;12.286;2022-12-24T15:15:12;6.40;70.40
31731;DHT22;18310;55.586;12.286;2022-12-24T15:18:21;6.40;70.50
31731;DHT22;18310;55.586;12.286;2022-12-24T15:21:29;6.50;70.70
31731;DHT22;18310;55.586;12.286;2022-12-24T15:24:42;7.00;71.10
31731;DHT22;18310;55.586;12.286;2022-12-24T15:27:47;6.50;70.90
31731;DHT22;18310;55.586;12.286;2022-12-24T15:31:04;6.50;71.00
31731;DHT22;18310;55.586;12.286;2022-12-24T15:34:25;6.50;71.30
31731;DHT22;18310;55.586;12.286;2022-12-24T15:37:33;6.50;71.30
31731;DHT22;18310;55.586;12.286;2022-12-24T15:40:38;6.60;71.20
31731;DHT22;18310;55.586;12.286;2022-12-24T15:43:43;6.60;71.20
31731;DHT22;18310;55.586;12.286;2022-12-24T15:46:49;6.60;71.20
31731;DHT22;18310;55.586;12.286;2022-12-24T15:50:01;6.60;71.20
31731;DHT22;18310;55.586;12.286;2022-12-24T15:53:12;6.60;71.20
31731;DHT22;18310;55.586;12.286;2022-12-24T15:56:34;6.60;71.20
31731;DHT22;18310;55.586;12.286;2022-12-24T15:59:39;6.60;71.10
31731;DHT22;18310;55.586;12.286;2022-12-24T16:02:44;6.70;71.10
31731;DHT22;18310;55.586;12.286;2022-12-24T16:05:58;7.50;71.60
31731;DHT22;18310;55.586;12.286;2022-12-24T16:09:01;6.70;71.00
31731;DHT22;18310;55.586;12.286;2022-12-24T16:12:49;6.50;71.00
31731;DHT22;18310;55.586;12.286;2022-12-24T16:15:54;6.70;70.90
31731;DHT22;18310;55.586;12.286;2022-12-24T16:19:01;6.70;71.00
31731;DHT22;18310;55.586;12.286;2022-12-24T16:22:10;6.70;70.90
31731;DHT22;18310;55.586;12.286;2022-12-24T16:25:36;6.60;71.30
31731;DHT22;18310;55.586;12.286;2022-12-24T16:28:39;6.60;70.90
31731;DHT22;18310;55.586;12.286;2022-12-24T16:31:44;6.60;70.80
31731;DHT22;18310;55.586;12.286;2022-12-24T16:34:51;6.70;70.80
31731;DHT22;18310;55.586;12.286;2022-12-24T16:37:55;6.60;71.00
31731;DHT22;18310;55.586;12.286;2022-12-24T16:40:58;6.60;71.00
31731;DHT22;18310;55.586;12.286;2022-12-24T16:44:01;6.60;71.00
31731;DHT22;18310;55.586;12.286;2022-12-24T16:47:06;6.60;71.00
31731;DHT22;18310;55.586;12.286;2022-12-24T16:50:16;6.60;71.20
31731;DHT22;18310;55.586;12.286;2022-12-24T16:53:22;6.60;71.10
31731;DHT22;18310;55.586;12.286;2022-12-24T16:56:26;6.60;71.50
31731;DHT22;18310;55.586;12.286;2022-12-24T16:59:29;6.60;71.10
31731;DHT22;18310;55.586;12.286;2022-12-24T17:02:33;6.70;71.10
31731;DHT22;18310;55.586;12.286;2022-12-24T17:05:37;6.60;71.00
31731;DHT22;18310;55.586;12.286;2022-12-24T17:08:42;6.70;71.10
31731;DHT22;18310;55.586;12.286;2022-12-24T17:11:45;6.60;71.20
31731;DHT22;18310;55.586;12.286;2022-12-24T17:14:49;6.10;71.10
31731;DHT22;18310;55.586;12.286;2022-12-24T17:17:52;6.70;71.40
31731;DHT22;18310;55.586;12.286;2022-12-24T17:20:59;6.70;71.50
31731;DHT22;18310;55.586;12.286;2022-12-24T17:24:06;6.70;71.70
31731;DHT22;18310;55.586;12.286;2022-12-24T17:27:10;6.70;71.70
31731;DHT22;18310;55.586;12.286;2022-12-24T17:30:13;6.80;71.90
31731;DHT22;18310;55.586;12.286;2022-12-24T17:33:17;6.80;72.50
31731;DHT22;18310;55.586;12.286;2022-12-24T17:36:21;6.80;72.10
31731;DHT22;18310;55.586;12.286;2022-12-24T17:39:25;6.80;72.20
31731;DHT22;18310;55.586;12.286;2022-12-24T17:42:29;6.90;72.30
31731;DHT22;18310;55.586;12.286;2022-12-24T17:45:32;6.30;71.90
31731;DHT22;18310;55.586;12.286;2022-12-24T17:48:35;6.90;72.30
31731;DHT22;18310;55.586;12.286;2022-12-24T17:51:39;7.80;72.70
31731;DHT22;18310;55.586;12.286;2022-12-24T17:54:48;6.90;72.30
31731;DHT22;18310;55.586;12.286;2022-12-24T17:57:51;6.90;72.30
31731;DHT22;18310;55.586;12.286;2022-12-24T18:00:55;6.90;72.70
31731;DHT22;18310;55.586;12.286;2022-12-24T18:04:00;7.00;72.50
31731;DHT22;18310;55.586;12.286;2022-12-24T18:07:05;6.90;72.50
31731;DHT22;18310;55.586;12.286;2022-12-24T18:10:10;7.00;72.70
31731;DHT22;18310;55.586;12.286;2022-12-24T18:13:13;7.00;72.80
31731;DHT22;18310;55.586;12.286;2022-12-24T18:16:22;7.60;73.20
31731;DHT22;18310;55.586;12.286;2022-12-24T18:19:26;6.90;72.90
31731;DHT22;18310;55.586;12.286;2022-12-24T18:22:29;6.10;72.50
31731;DHT22;18310;55.586;12.286;2022-12-24T18:25:34;7.10;73.10
31731;DHT22;18310;55.586;12.286;2022-12-24T18:28:38;7.20;73.10
31731;DHT22;18310;55.586;12.286;2022-12-24T18:31:42;7.20;73.00
31731;DHT22;18310;55.586;12.286;2022-12-24T18:34:45;7.20;73.00
31731;DHT22;18310;55.586;12.286;2022-12-24T18:37:48;7.30;73.00
31731;DHT22;18310;55.586;12.286;2022-12-24T18:40:53;7.30;72.90
31731;DHT22;18310;55.586;12.286;2022-12-24T18:43:57;7.30;72.80
31731;DHT22;18310;55.586;12.286;2022-12-24T18:47:01;7.30;72.70
31731;DHT22;18310;55.586;12.286;2022-12-24T18:50:06;7.40;72.70
31731;DHT22;18310;55.586;12.286;2022-12-24T18:53:09;7.40;72.70
31731;DHT22;18310;55.586;12.286;2022-12-24T18:56:17;7.40;72.60
31731;DHT22;18310;55.586;12.286;2022-12-24T18:59:23;7.40;72.50
31731;DHT22;18310;55.586;12.286;2022-12-24T19:02:26;7.40;72.40
31731;DHT22;18310;55.586;12.286;2022-12-24T19:05:31;7.40;72.40
31731;DHT22;18310;55.586;12.286;2022-12-24T19:08:34;7.40;72.40
31731;DHT22;18310;55.586;12.286;2022-12-24T19:11:59;7.40;72.30
31731;DHT22;18310;55.586;12.286;2022-12-24T19:15:03;7.40;72.10
31731;DHT22;18310;55.586;12.286;2022-12-24T19:18:07;7.40;72.10
31731;DHT22;18310;55.586;12.286;2022-12-24T19:21:12;7.40;72.10
31731;DHT22;18310;55.586;12.286;2022-12-24T19:24:17;7.50;72.10
31731;DHT22;18310;55.586;12.286;2022-12-24T19:27:22;7.50;72.20
31731;DHT22;18310;55.586;12.286;2022-12-24T19:30:25;7.40;72.10
31731;DHT22;18310;55.586;12.286;2022-12-24T19:33:29;7.50;72.10
31731;DHT22;18310;55.586;12.286;2022-12-24T19:36:37;7.40;72.10
31731;DHT22;18310;55.586;12.286;2022-12-24T19:39:41;7.40;72.20
31731;DHT22;18310;55.586;12.286;2022-12-24T19:42:45;7.40;72.10
31731;DHT22;18310;55.586;12.286;2022-12-24T19:45:56;7.40;72.20
31731;DHT22;18310;55.586;12.286;2022-12-24T19:49:02;6.80;71.80
31731;DHT22;18310;55.586;12.286;2022-12-24T19:52:07;7.40;72.20
31731;DHT22;18310;55.586;12.286;2022-12-24T19:55:10;7.40;72.10
31731;DHT22;18310;55.586;12.286;2022-12-24T19:58:15;8.30;72.60
31731;DHT22;18310;55.586;12.286;2022-12-24T20:01:20;7.40;72.00
31731;DHT22;18310;55.586;12.286;2022-12-24T20:04:25;7.40;71.90